createdAt,value
2017-07-30T00:00:15.780Z,0
2017-07-30T00:01:14.014Z,0
2017-07-30T00:02:14.011Z,0
2017-07-30T00:03:14.327Z,0
2017-07-30T00:04:14.323Z,0
2017-07-30T00:05:15.518Z,0
2017-07-30T00:06:14.356Z,0
2017-07-30T00:07:14.045Z,0
2017-07-30T00:08:14.041Z,0
2017-07-30T00:09:14.352Z,0
2017-07-30T00:10:15.936Z,0
2017-07-30T00:11:14.362Z,0
2017-07-30T00:12:14.363Z,0
2017-07-30T00:13:14.355Z,0
2017-07-30T00:14:13.742Z,0
2017-07-30T00:15:15.875Z,0
2017-07-30T00:16:14.367Z,0
2017-07-30T00:17:14.383Z,0
2017-07-30T00:18:14.374Z,0
2017-07-30T00:19:14.370Z,0
2017-07-30T00:20:15.513Z,0
2017-07-30T00:21:14.090Z,0
2017-07-30T00:22:14.110Z,0
2017-07-30T00:23:14.386Z,0
2017-07-30T00:24:14.088Z,0
2017-07-30T00:25:15.788Z,0
2017-07-30T00:26:14.090Z,0
2017-07-30T00:27:14.101Z,0
2017-07-30T00:28:14.092Z,0
2017-07-30T00:29:14.410Z,0
2017-07-30T00:30:15.261Z,0
2017-07-30T00:31:14.416Z,0
2017-07-30T00:32:14.417Z,0
2017-07-30T00:33:14.110Z,0
2017-07-30T00:34:13.523Z,0
2017-07-30T00:35:15.887Z,0
2017-07-30T00:36:14.430Z,0
2017-07-30T00:37:14.446Z,0
2017-07-30T00:38:13.837Z,0
2017-07-30T00:39:13.817Z,0
2017-07-30T00:40:15.690Z,0
2017-07-30T00:41:14.450Z,0
2017-07-30T00:42:14.138Z,0
2017-07-30T00:43:14.158Z,0
2017-07-30T00:44:14.465Z,0
2017-07-30T00:45:15.384Z,0
2017-07-30T00:46:14.160Z,0
2017-07-30T00:47:14.471Z,0
2017-07-30T00:48:14.166Z,0
2017-07-30T00:49:14.473Z,0
2017-07-30T00:50:15.733Z,0
2017-07-30T00:51:14.493Z,0
2017-07-30T00:52:14.488Z,0
2017-07-30T00:53:14.492Z,0
2017-07-30T00:54:14.488Z,0
2017-07-30T00:55:15.795Z,0
2017-07-30T00:56:14.499Z,0
2017-07-30T00:57:14.200Z,0
2017-07-30T00:58:14.199Z,0
2017-07-30T00:59:14.218Z,0
2017-07-30T01:00:16.089Z,0
2017-07-30T01:01:14.518Z,0
2017-07-30T01:02:14.231Z,0
2017-07-30T01:03:14.530Z,0
2017-07-30T01:04:14.510Z,0
2017-07-30T01:05:16.095Z,0
2017-07-30T01:06:14.518Z,0
2017-07-30T01:07:14.239Z,0
2017-07-30T01:08:14.539Z,0
2017-07-30T01:09:14.530Z,0
2017-07-30T01:10:15.965Z,0
2017-07-30T01:11:14.532Z,0
2017-07-30T01:12:14.543Z,0
2017-07-30T01:13:14.240Z,0
2017-07-30T01:14:14.547Z,0
2017-07-30T01:15:15.405Z,0
2017-07-30T01:16:14.563Z,0
2017-07-30T01:17:14.267Z,0
2017-07-30T01:18:13.995Z,0
2017-07-30T01:19:14.571Z,0
2017-07-30T01:20:15.614Z,0
2017-07-30T01:21:14.592Z,0
2017-07-30T01:22:14.290Z,0
2017-07-30T01:23:14.585Z,0
2017-07-30T01:24:14.287Z,0
2017-07-30T01:25:16.011Z,0
2017-07-30T01:26:14.296Z,0
2017-07-30T01:27:14.278Z,0
2017-07-30T01:28:14.290Z,0
2017-07-30T01:29:14.291Z,0
2017-07-30T01:30:19.641Z,0
2017-07-30T01:31:14.323Z,0
2017-07-30T01:32:14.619Z,0
2017-07-30T01:33:14.623Z,0
2017-07-30T01:34:14.623Z,0
2017-07-30T01:35:15.929Z,0
2017-07-30T01:36:14.332Z,0
2017-07-30T01:37:14.323Z,0
2017-07-30T01:38:14.639Z,0
2017-07-30T01:39:14.632Z,0
2017-07-30T01:40:15.870Z,0
2017-07-30T01:41:14.625Z,0
2017-07-30T01:42:14.342Z,0
2017-07-30T01:43:14.340Z,0
2017-07-30T01:44:14.642Z,0
2017-07-30T01:45:16.506Z,0
2017-07-30T01:46:14.364Z,0
2017-07-30T01:47:14.640Z,0
2017-07-30T01:48:14.648Z,0
2017-07-30T01:49:14.652Z,0
2017-07-30T01:50:16.082Z,0
2017-07-30T01:51:14.349Z,0
2017-07-30T01:52:14.659Z,0
2017-07-30T01:53:14.670Z,0
2017-07-30T01:54:14.378Z,0
2017-07-30T01:55:15.779Z,0
2017-07-30T01:56:14.665Z,0
2017-07-30T01:57:14.672Z,0
2017-07-30T01:58:14.372Z,0
2017-07-30T01:59:14.379Z,0
2017-07-30T02:00:16.108Z,0
2017-07-30T02:01:14.676Z,0
2017-07-30T02:02:14.692Z,0
2017-07-30T02:03:14.098Z,0
2017-07-30T02:04:14.693Z,0
2017-07-30T02:05:16.017Z,0
2017-07-30T02:06:14.695Z,0
2017-07-30T02:07:14.701Z,0
2017-07-30T02:08:14.703Z,0
2017-07-30T02:09:14.707Z,0
2017-07-30T02:10:16.534Z,0
2017-07-30T02:11:15.202Z,0
2017-07-30T02:12:14.416Z,0
2017-07-30T02:13:14.408Z,0
2017-07-30T02:14:14.424Z,0
2017-07-30T02:15:16.200Z,0
2017-07-30T02:16:14.770Z,0
2017-07-30T02:17:14.723Z,0
2017-07-30T02:18:14.744Z,0
2017-07-30T02:19:14.748Z,0
2017-07-30T02:20:15.794Z,0
2017-07-30T02:21:14.744Z,0
2017-07-30T02:22:14.749Z,0
2017-07-30T02:23:14.750Z,0
2017-07-30T02:24:14.765Z,0
2017-07-30T02:25:15.711Z,0
2017-07-30T02:26:14.767Z,0
2017-07-30T02:27:14.756Z,0
2017-07-30T02:28:14.763Z,0
2017-07-30T02:29:14.465Z,0
2017-07-30T02:30:15.907Z,0
2017-07-30T02:31:14.813Z,0
2017-07-30T02:32:14.764Z,0
2017-07-30T02:33:14.473Z,0
2017-07-30T02:34:14.789Z,0
2017-07-30T02:35:15.745Z,0
2017-07-30T02:36:14.776Z,0
2017-07-30T02:37:14.518Z,0
2017-07-30T02:38:14.780Z,0
2017-07-30T02:39:14.796Z,0
2017-07-30T02:40:16.507Z,0
2017-07-30T02:41:14.792Z,0
2017-07-30T02:42:14.500Z,0
2017-07-30T02:43:14.195Z,0
2017-07-30T02:44:14.818Z,0
2017-07-30T02:45:15.968Z,0
2017-07-30T02:46:15.654Z,0
2017-07-30T02:47:14.807Z,0
2017-07-30T02:48:14.813Z,0
2017-07-30T02:49:14.818Z,0
2017-07-30T02:50:16.627Z,0
2017-07-30T02:51:14.849Z,0
2017-07-30T02:52:14.821Z,0
2017-07-30T02:53:14.832Z,0
2017-07-30T02:54:14.530Z,0
2017-07-30T02:55:16.978Z,0
2017-07-30T02:56:14.824Z,0
2017-07-30T02:57:14.230Z,0
2017-07-30T02:58:14.831Z,0
2017-07-30T02:59:14.847Z,0
2017-07-30T03:00:15.759Z,0
2017-07-30T03:01:15.683Z,0
2017-07-30T03:02:14.850Z,0
2017-07-30T03:03:14.537Z,0
2017-07-30T03:04:14.860Z,0
2017-07-30T03:05:15.757Z,0
2017-07-30T03:06:14.856Z,0
2017-07-30T03:07:14.550Z,0
2017-07-30T03:08:14.873Z,0
2017-07-30T03:09:14.862Z,0
2017-07-30T03:10:16.203Z,4
2017-07-30T03:11:14.860Z,4
2017-07-30T03:12:14.575Z,4
2017-07-30T03:13:14.264Z,0
2017-07-30T03:14:14.869Z,0
2017-07-30T03:15:16.319Z,4
2017-07-30T03:16:14.877Z,4
2017-07-30T03:17:14.884Z,0
2017-07-30T03:18:14.581Z,4
2017-07-30T03:19:14.882Z,4
2017-07-30T03:20:16.120Z,4
2017-07-30T03:21:14.886Z,4
2017-07-30T03:22:14.889Z,8
2017-07-30T03:23:14.895Z,4
2017-07-30T03:24:14.293Z,8
2017-07-30T03:25:15.949Z,8
2017-07-30T03:26:14.605Z,8
2017-07-30T03:27:14.641Z,12
2017-07-30T03:28:14.918Z,12
2017-07-30T03:29:14.922Z,16
2017-07-30T03:30:15.944Z,16
2017-07-30T03:31:14.932Z,20
2017-07-30T03:32:19.876Z,24
2017-07-30T03:33:14.925Z,24
2017-07-30T03:34:14.925Z,28
2017-07-30T03:35:16.942Z,28
2017-07-30T03:36:14.943Z,32
2017-07-30T03:37:14.932Z,36
2017-07-30T03:38:14.634Z,40
2017-07-30T03:39:14.936Z,44
2017-07-30T03:40:16.850Z,48
2017-07-30T03:41:14.943Z,52
2017-07-30T03:42:14.955Z,60
2017-07-30T03:43:14.649Z,64
2017-07-30T03:44:14.950Z,76
2017-07-30T03:45:15.483Z,84
2017-07-30T03:46:14.955Z,92
2017-07-30T03:47:15.008Z,104
2017-07-30T03:48:14.962Z,116
2017-07-30T03:49:14.664Z,132
2017-07-30T03:50:16.758Z,144
2017-07-30T03:51:14.691Z,152
2017-07-30T03:52:14.973Z,168
2017-07-30T03:53:14.979Z,188
2017-07-30T03:54:14.983Z,208
2017-07-30T03:55:16.243Z,228
2017-07-30T03:56:14.986Z,248
2017-07-30T03:57:14.994Z,272
2017-07-30T03:58:14.687Z,292
2017-07-30T03:59:14.995Z,320
2017-07-30T04:00:16.729Z,356
2017-07-30T04:01:15.001Z,392
2017-07-30T04:02:16.168Z,440
2017-07-30T04:03:15.060Z,476
2017-07-30T04:04:14.714Z,516
2017-07-30T04:05:16.257Z,564
2017-07-30T04:06:15.020Z,608
2017-07-30T04:07:15.018Z,652
2017-07-30T04:08:14.716Z,696
2017-07-30T04:09:14.714Z,736
2017-07-30T04:10:16.276Z,780
2017-07-30T04:11:15.027Z,820
2017-07-30T04:12:15.036Z,852
2017-07-30T04:13:14.742Z,876
2017-07-30T04:14:15.035Z,900
2017-07-30T04:15:16.302Z,924
2017-07-30T04:16:15.049Z,944
2017-07-30T04:17:15.891Z,968
2017-07-30T04:18:15.049Z,1004
2017-07-30T04:19:14.749Z,1048
2017-07-30T04:20:15.950Z,1096
2017-07-30T04:21:15.059Z,1140
2017-07-30T04:22:14.751Z,1180
2017-07-30T04:23:14.773Z,1228
2017-07-30T04:24:15.072Z,1604
2017-07-30T04:25:16.168Z,2208
2017-07-30T04:26:15.082Z,2444
2017-07-30T04:27:15.072Z,2072
2017-07-30T04:28:14.779Z,1516
2017-07-30T04:29:14.780Z,1468
2017-07-30T04:30:16.321Z,1512
2017-07-30T04:31:15.083Z,1568
2017-07-30T04:32:14.800Z,1644
2017-07-30T04:33:16.254Z,1728
2017-07-30T04:34:15.088Z,2256
2017-07-30T04:35:16.332Z,3200
2017-07-30T04:36:15.096Z,2352
2017-07-30T04:37:15.096Z,2328
2017-07-30T04:38:15.111Z,4312
2017-07-30T04:39:15.110Z,4708
2017-07-30T04:40:16.049Z,5164
2017-07-30T04:41:14.804Z,5184
2017-07-30T04:42:15.116Z,5256
2017-07-30T04:43:15.117Z,5424
2017-07-30T04:44:14.515Z,5532
2017-07-30T04:45:15.993Z,5492
2017-07-30T04:46:15.122Z,3828
2017-07-30T04:47:15.126Z,5156
2017-07-30T04:48:19.218Z,5736
2017-07-30T04:49:15.172Z,5928
2017-07-30T04:50:15.886Z,5316
2017-07-30T04:51:15.142Z,4636
2017-07-30T04:52:15.186Z,4244
2017-07-30T04:53:14.853Z,4020
2017-07-30T04:54:14.871Z,4452
2017-07-30T04:55:16.196Z,5636
2017-07-30T04:56:15.155Z,3100
2017-07-30T04:57:15.170Z,2848
2017-07-30T04:58:15.182Z,3840
2017-07-30T04:59:14.875Z,3436
2017-07-30T05:00:16.429Z,3424
2017-07-30T05:01:14.887Z,2632
2017-07-30T05:02:15.197Z,3520
2017-07-30T05:03:15.185Z,4504
2017-07-30T05:04:14.899Z,5972
2017-07-30T05:05:16.604Z,6000
2017-07-30T05:06:15.192Z,5700
2017-07-30T05:07:14.905Z,3748
2017-07-30T05:08:14.900Z,3148
2017-07-30T05:09:14.915Z,3528
2017-07-30T05:10:16.804Z,3632
2017-07-30T05:11:15.211Z,3928
2017-07-30T05:12:15.217Z,4160
2017-07-30T05:13:15.214Z,4220
2017-07-30T05:14:15.223Z,4272
2017-07-30T05:15:16.143Z,4128
2017-07-30T05:16:15.227Z,4300
2017-07-30T05:17:14.936Z,4656
2017-07-30T05:18:14.952Z,4500
2017-07-30T05:19:15.304Z,4472
2017-07-30T05:20:16.853Z,4444
2017-07-30T05:21:15.259Z,4348
2017-07-30T05:22:14.959Z,4352
2017-07-30T05:23:15.258Z,4232
2017-07-30T05:24:15.278Z,3372
2017-07-30T05:25:16.512Z,3356
2017-07-30T05:26:15.274Z,3332
2017-07-30T05:27:15.277Z,10136
2017-07-30T05:28:14.971Z,4076
2017-07-30T05:29:15.283Z,4124
2017-07-30T05:30:17.048Z,4132
2017-07-30T05:31:14.980Z,4092
2017-07-30T05:32:15.288Z,4064
2017-07-30T05:33:14.993Z,4048
2017-07-30T05:34:17.204Z,4056
2017-07-30T05:35:17.071Z,4064
2017-07-30T05:36:15.045Z,4116
2017-07-30T05:37:15.341Z,4168
2017-07-30T05:38:15.333Z,4312
2017-07-30T05:39:15.333Z,4628
2017-07-30T05:40:16.656Z,5040
2017-07-30T05:41:15.067Z,5336
2017-07-30T05:42:15.073Z,11036
2017-07-30T05:43:15.049Z,11276
2017-07-30T05:44:15.349Z,4828
2017-07-30T05:45:16.528Z,4748
2017-07-30T05:46:15.058Z,4684
2017-07-30T05:47:15.057Z,4640
2017-07-30T05:48:15.365Z,4584
2017-07-30T05:49:17.872Z,4552
2017-07-30T05:50:17.090Z,4552
2017-07-30T05:51:15.065Z,4536
2017-07-30T05:52:15.081Z,4544
2017-07-30T05:53:15.378Z,4548
2017-07-30T05:54:15.421Z,4540
2017-07-30T05:55:16.935Z,4564
2017-07-30T05:56:15.402Z,4584
2017-07-30T05:57:15.098Z,4604
2017-07-30T05:58:15.395Z,4632
2017-07-30T05:59:15.120Z,12260
2017-07-30T06:00:17.252Z,11880
2017-07-30T06:01:15.439Z,11916
2017-07-30T06:02:15.414Z,12148
2017-07-30T06:03:15.441Z,12292
2017-07-30T06:04:15.930Z,12408
2017-07-30T06:05:16.895Z,12460
2017-07-30T06:06:15.131Z,12616
2017-07-30T06:07:15.147Z,12780
2017-07-30T06:08:15.148Z,12888
2017-07-30T06:09:15.462Z,12840
2017-07-30T06:10:16.988Z,12852
2017-07-30T06:11:15.475Z,12824
2017-07-30T06:12:15.529Z,12960
2017-07-30T06:13:15.502Z,12920
2017-07-30T06:14:14.904Z,13036
2017-07-30T06:15:17.239Z,13112
2017-07-30T06:16:15.522Z,13116
2017-07-30T06:17:15.516Z,13180
2017-07-30T06:18:14.915Z,13212
2017-07-30T06:19:15.221Z,13252
2017-07-30T06:20:17.307Z,13344
2017-07-30T06:21:15.240Z,13308
2017-07-30T06:22:15.248Z,13328
2017-07-30T06:23:15.249Z,13328
2017-07-30T06:24:15.568Z,13364
2017-07-30T06:25:16.502Z,13380
2017-07-30T06:26:15.595Z,13440
2017-07-30T06:27:15.598Z,13384
2017-07-30T06:28:15.306Z,13320
2017-07-30T06:29:15.003Z,13296
2017-07-30T06:30:16.591Z,13308
2017-07-30T06:31:15.629Z,13412
2017-07-30T06:32:15.350Z,13444
2017-07-30T06:33:15.649Z,13448
2017-07-30T06:34:15.653Z,13380
2017-07-30T06:35:20.712Z,13392
2017-07-30T06:36:15.674Z,13460
2017-07-30T06:37:15.374Z,13480
2017-07-30T06:38:15.397Z,13488
2017-07-30T06:39:15.696Z,13524
2017-07-30T06:40:16.978Z,13516
2017-07-30T06:41:15.417Z,13504
2017-07-30T06:42:15.725Z,13524
2017-07-30T06:43:15.443Z,13556
2017-07-30T06:44:15.747Z,13560
2017-07-30T06:45:17.104Z,13572
2017-07-30T06:46:15.160Z,13620
2017-07-30T06:47:15.775Z,13584
2017-07-30T06:48:15.506Z,13548
2017-07-30T06:49:15.810Z,13524
2017-07-30T06:50:16.943Z,13516
2017-07-30T06:51:15.825Z,13520
2017-07-30T06:52:15.556Z,13544
2017-07-30T06:53:15.839Z,13580
2017-07-30T06:54:15.861Z,13580
2017-07-30T06:55:17.016Z,13572
2017-07-30T06:56:15.881Z,13540
2017-07-30T06:57:15.596Z,13608
2017-07-30T06:58:15.900Z,13540
2017-07-30T06:59:15.313Z,13584
2017-07-30T07:00:17.696Z,13376
2017-07-30T07:01:15.641Z,13548
2017-07-30T07:02:15.346Z,13524
2017-07-30T07:03:15.960Z,13508
2017-07-30T07:04:15.963Z,13560
2017-07-30T07:05:17.178Z,13592
2017-07-30T07:06:16.002Z,13556
2017-07-30T07:07:15.396Z,13568
2017-07-30T07:08:16.034Z,13624
2017-07-30T07:09:16.024Z,13524
2017-07-30T07:10:17.298Z,13608
2017-07-30T07:11:16.053Z,13576
2017-07-30T07:12:16.066Z,13612
2017-07-30T07:13:16.077Z,13644
2017-07-30T07:14:16.093Z,13592
2017-07-30T07:15:16.917Z,13584
2017-07-30T07:16:16.118Z,13532
2017-07-30T07:17:15.827Z,13268
2017-07-30T07:18:15.847Z,13444
2017-07-30T07:19:16.159Z,13300
2017-07-30T07:20:17.783Z,13464
2017-07-30T07:21:15.577Z,13396
2017-07-30T07:22:16.192Z,13380
2017-07-30T07:23:16.199Z,12712
2017-07-30T07:24:15.913Z,13184
2017-07-30T07:25:17.533Z,12368
2017-07-30T07:26:15.953Z,11128
2017-07-30T07:27:15.344Z,12392
2017-07-30T07:28:16.286Z,12600
2017-07-30T07:29:16.283Z,12320
2017-07-30T07:30:17.277Z,11560
2017-07-30T07:31:16.320Z,10788
2017-07-30T07:32:16.325Z,9816
2017-07-30T07:33:16.335Z,9120
2017-07-30T07:34:16.062Z,9120
2017-07-30T07:35:17.360Z,9380
2017-07-30T07:36:18.189Z,9448
2017-07-30T07:37:16.081Z,9676
2017-07-30T07:38:16.090Z,10144
2017-07-30T07:39:16.400Z,10548
2017-07-30T07:40:17.976Z,10328
2017-07-30T07:41:16.130Z,10656
2017-07-30T07:42:16.132Z,11828
2017-07-30T07:43:16.147Z,12416
2017-07-30T07:44:16.486Z,12316
2017-07-30T07:45:18.044Z,12220
2017-07-30T07:46:16.171Z,12160
2017-07-30T07:47:16.483Z,12080
2017-07-30T07:48:16.498Z,12000
2017-07-30T07:49:16.506Z,11872
2017-07-30T07:50:17.625Z,11828
2017-07-30T07:51:19.342Z,11660
2017-07-30T07:52:15.939Z,11320
2017-07-30T07:53:16.248Z,11148
2017-07-30T07:54:16.567Z,11304
2017-07-30T07:55:16.968Z,11520
2017-07-30T07:56:16.596Z,11676
2017-07-30T07:57:16.598Z,11612
2017-07-30T07:58:16.617Z,11444
2017-07-30T07:59:16.328Z,11376
2017-07-30T08:00:18.013Z,10200
2017-07-30T08:01:16.356Z,9204
2017-07-30T08:02:16.661Z,10136
2017-07-30T08:03:16.677Z,10152
2017-07-30T08:04:16.681Z,9708
2017-07-30T08:05:17.978Z,10376
2017-07-30T08:06:16.703Z,9464
2017-07-30T08:07:16.733Z,10184
2017-07-30T08:08:16.811Z,10320
2017-07-30T08:09:16.784Z,10288
2017-07-30T08:10:17.706Z,10640
2017-07-30T08:11:16.761Z,10088
2017-07-30T08:12:16.767Z,10008
2017-07-30T08:13:16.790Z,10760
2017-07-30T08:14:16.506Z,10668
2017-07-30T08:15:17.823Z,10752
2017-07-30T08:16:16.816Z,10680
2017-07-30T08:17:16.527Z,10600
2017-07-30T08:18:16.853Z,10528
2017-07-30T08:19:16.557Z,10424
2017-07-30T08:20:17.699Z,10304
2017-07-30T08:21:16.593Z,10200
2017-07-30T08:22:17.690Z,10120
2017-07-30T08:23:16.896Z,9984
2017-07-30T08:24:16.611Z,9844
2017-07-30T08:25:18.418Z,9692
2017-07-30T08:26:16.936Z,9600
2017-07-30T08:27:16.948Z,9492
2017-07-30T08:28:16.959Z,9388
2017-07-30T08:29:16.973Z,9292
2017-07-30T08:30:17.732Z,9232
2017-07-30T08:31:16.692Z,9164
2017-07-30T08:32:17.008Z,9056
2017-07-30T08:33:17.015Z,8976
2017-07-30T08:34:16.423Z,8880
2017-07-30T08:35:17.692Z,8804
2017-07-30T08:36:16.745Z,8776
2017-07-30T08:37:18.019Z,8708
2017-07-30T08:38:17.076Z,8640
2017-07-30T08:39:17.092Z,8580
2017-07-30T08:40:17.915Z,8532
2017-07-30T08:41:17.110Z,8460
2017-07-30T08:42:17.135Z,8380
2017-07-30T08:43:17.135Z,8280
2017-07-30T08:44:16.552Z,8276
2017-07-30T08:45:18.050Z,8176
2017-07-30T08:46:17.172Z,8056
2017-07-30T08:47:17.197Z,8012
2017-07-30T08:48:16.889Z,7940
2017-07-30T08:49:16.962Z,7876
2017-07-30T08:50:18.072Z,7804
2017-07-30T08:51:17.228Z,7760
2017-07-30T08:52:17.292Z,7716
2017-07-30T08:53:17.240Z,7656
2017-07-30T08:54:17.280Z,7512
2017-07-30T08:55:18.784Z,7380
2017-07-30T08:56:17.336Z,6916
2017-07-30T08:57:17.296Z,7492
2017-07-30T08:58:17.303Z,7488
2017-07-30T08:59:17.004Z,7480
2017-07-30T09:00:18.142Z,7484
2017-07-30T09:01:16.725Z,7420
2017-07-30T09:02:17.042Z,7396
2017-07-30T09:03:17.046Z,7332
2017-07-30T09:04:17.058Z,7340
2017-07-30T09:05:18.262Z,7272
2017-07-30T09:06:17.393Z,7048
2017-07-30T09:07:18.501Z,7048
2017-07-30T09:08:17.397Z,7160
2017-07-30T09:09:16.810Z,7152
2017-07-30T09:10:18.462Z,7128
2017-07-30T09:11:17.430Z,7072
2017-07-30T09:12:17.130Z,7024
2017-07-30T09:13:17.144Z,7056
2017-07-30T09:14:17.455Z,7012
2017-07-30T09:15:18.927Z,7052
2017-07-30T09:16:17.475Z,7000
2017-07-30T09:17:17.223Z,6968
2017-07-30T09:18:17.195Z,6944
2017-07-30T09:19:17.200Z,6968
2017-07-30T09:20:18.786Z,6976
2017-07-30T09:21:17.202Z,6916
2017-07-30T09:22:17.578Z,6916
2017-07-30T09:23:17.530Z,6892
2017-07-30T09:24:17.528Z,6904
2017-07-30T09:25:19.204Z,6884
2017-07-30T09:26:17.246Z,6900
2017-07-30T09:27:17.560Z,6892
2017-07-30T09:28:17.566Z,6908
2017-07-30T09:29:17.269Z,6888
2017-07-30T09:30:18.825Z,6944
2017-07-30T09:31:17.584Z,6876
2017-07-30T09:32:17.592Z,6884
2017-07-30T09:33:17.307Z,6892
2017-07-30T09:34:17.604Z,6904
2017-07-30T09:35:18.524Z,6884
2017-07-30T09:36:17.323Z,6920
2017-07-30T09:37:17.337Z,6920
2017-07-30T09:38:17.675Z,6888
2017-07-30T09:39:17.680Z,6864
2017-07-30T09:40:18.223Z,6916
2017-07-30T09:41:17.671Z,6912
2017-07-30T09:42:17.068Z,6860
2017-07-30T09:43:17.376Z,6876
2017-07-30T09:44:17.704Z,6904
2017-07-30T09:45:18.279Z,6864
2017-07-30T09:46:17.394Z,6916
2017-07-30T09:47:17.713Z,7076
2017-07-30T09:48:17.444Z,7200
2017-07-30T09:49:17.428Z,7308
2017-07-30T09:50:19.100Z,7336
2017-07-30T09:51:17.751Z,7348
2017-07-30T09:52:17.745Z,7416
2017-07-30T09:53:17.803Z,7428
2017-07-30T09:54:17.761Z,7464
2017-07-30T09:55:18.138Z,7484
2017-07-30T09:56:17.784Z,7532
2017-07-30T09:57:17.781Z,7552
2017-07-30T09:58:17.485Z,7568
2017-07-30T09:59:17.803Z,7468
2017-07-30T10:00:19.497Z,7360
2017-07-30T10:01:17.807Z,7296
2017-07-30T10:02:17.525Z,7256
2017-07-30T10:03:17.528Z,7292
2017-07-30T10:04:17.535Z,7416
2017-07-30T10:05:18.684Z,7376
2017-07-30T10:06:17.545Z,7384
2017-07-30T10:07:17.563Z,7356
2017-07-30T10:08:21.127Z,7312
2017-07-30T10:09:17.866Z,7364
2017-07-30T10:10:18.936Z,7396
2017-07-30T10:11:17.597Z,7460
2017-07-30T10:12:17.588Z,7556
2017-07-30T10:13:17.598Z,7436
2017-07-30T10:14:17.610Z,7336
2017-07-30T10:15:18.910Z,7196
2017-07-30T10:16:17.664Z,7056
2017-07-30T10:17:17.333Z,6984
2017-07-30T10:18:17.931Z,6932
2017-07-30T10:19:17.943Z,6904
2017-07-30T10:20:19.563Z,6908
2017-07-30T10:21:18.037Z,6884
2017-07-30T10:22:17.667Z,6868
2017-07-30T10:23:18.516Z,6832
2017-07-30T10:24:17.669Z,6836
2017-07-30T10:25:18.409Z,6796
2017-07-30T10:26:18.008Z,6712
2017-07-30T10:27:17.698Z,6704
2017-07-30T10:28:17.706Z,6672
2017-07-30T10:29:18.026Z,6668
2017-07-30T10:30:19.044Z,6684
2017-07-30T10:31:18.038Z,6696
2017-07-30T10:32:17.732Z,6684
2017-07-30T10:33:18.049Z,6628
2017-07-30T10:34:17.449Z,6576
2017-07-30T10:35:19.554Z,6544
2017-07-30T10:36:17.458Z,6544
2017-07-30T10:37:18.078Z,5428
2017-07-30T10:38:18.830Z,6568
2017-07-30T10:39:18.089Z,6620
2017-07-30T10:40:18.829Z,6660
2017-07-30T10:41:18.116Z,6696
2017-07-30T10:42:17.814Z,6708
2017-07-30T10:43:18.116Z,6884
2017-07-30T10:44:18.134Z,7024
2017-07-30T10:45:19.632Z,7056
2017-07-30T10:46:18.143Z,7028
2017-07-30T10:47:17.550Z,6940
2017-07-30T10:48:17.550Z,6872
2017-07-30T10:49:17.864Z,6708
2017-07-30T10:50:19.389Z,6604
2017-07-30T10:51:18.175Z,6692
2017-07-30T10:52:18.187Z,6680
2017-07-30T10:53:18.201Z,6660
2017-07-30T10:54:17.604Z,6680
2017-07-30T10:55:19.827Z,6576
2017-07-30T10:56:18.218Z,6648
2017-07-30T10:57:18.233Z,4856
2017-07-30T10:58:17.932Z,4624
2017-07-30T10:59:17.938Z,4868
2017-07-30T11:00:19.517Z,6444
2017-07-30T11:01:18.273Z,6436
2017-07-30T11:02:17.964Z,6388
2017-07-30T11:03:18.279Z,6396
2017-07-30T11:04:19.082Z,6368
2017-07-30T11:05:18.929Z,6328
2017-07-30T11:06:18.287Z,6316
2017-07-30T11:07:18.293Z,6332
2017-07-30T11:08:18.304Z,6356
2017-07-30T11:09:20.713Z,6476
2017-07-30T11:10:19.308Z,6540
2017-07-30T11:11:18.330Z,4980
2017-07-30T11:12:18.333Z,4608
2017-07-30T11:13:18.346Z,4884
2017-07-30T11:14:18.364Z,7164
2017-07-30T11:15:19.252Z,7480
2017-07-30T11:16:18.370Z,8056
2017-07-30T11:17:18.081Z,8668
2017-07-30T11:18:18.076Z,9048
2017-07-30T11:19:18.416Z,8492
2017-07-30T11:20:19.411Z,7772
2017-07-30T11:21:18.407Z,8380
2017-07-30T11:22:18.111Z,9092
2017-07-30T11:23:18.423Z,8884
2017-07-30T11:24:18.469Z,7480
2017-07-30T11:25:19.237Z,9368
2017-07-30T11:26:18.139Z,9652
2017-07-30T11:27:18.450Z,9836
2017-07-30T11:28:18.172Z,9640
2017-07-30T11:29:18.157Z,9444
2017-07-30T11:30:19.963Z,9320
2017-07-30T11:31:18.174Z,9024
2017-07-30T11:32:18.186Z,8968
2017-07-30T11:33:18.487Z,8996
2017-07-30T11:34:18.204Z,9100
2017-07-30T11:35:19.343Z,8980
2017-07-30T11:36:18.517Z,7700
2017-07-30T11:37:18.534Z,8128
2017-07-30T11:38:18.562Z,7088
2017-07-30T11:39:18.606Z,6972
2017-07-30T11:40:19.390Z,7384
2017-07-30T11:41:18.253Z,7628
2017-07-30T11:42:18.567Z,8088
2017-07-30T11:43:18.578Z,8728
2017-07-30T11:44:18.288Z,9032
2017-07-30T11:45:20.185Z,9312
2017-07-30T11:46:18.293Z,8008
2017-07-30T11:47:18.306Z,7916
2017-07-30T11:48:18.622Z,7968
2017-07-30T11:49:18.322Z,7512
2017-07-30T11:50:19.624Z,7568
2017-07-30T11:51:18.331Z,7804
2017-07-30T11:52:18.342Z,8432
2017-07-30T11:53:18.658Z,8712
2017-07-30T11:54:21.365Z,8388
2017-07-30T11:55:19.847Z,8088
2017-07-30T11:56:18.389Z,7912
2017-07-30T11:57:18.685Z,7732
2017-07-30T11:58:18.696Z,7688
2017-07-30T11:59:18.393Z,7828
2017-07-30T12:00:19.793Z,7824
2017-07-30T12:01:18.726Z,8108
2017-07-30T12:02:18.729Z,8560
2017-07-30T12:03:18.739Z,9052
2017-07-30T12:04:18.746Z,9372
2017-07-30T12:05:19.708Z,9600
2017-07-30T12:06:18.759Z,10068
2017-07-30T12:07:18.166Z,10160
2017-07-30T12:08:18.770Z,10080
2017-07-30T12:09:18.778Z,10028
2017-07-30T12:10:19.432Z,9920
2017-07-30T12:11:18.799Z,9628
2017-07-30T12:12:18.512Z,9156
2017-07-30T12:13:18.514Z,8432
2017-07-30T12:14:18.818Z,7780
2017-07-30T12:15:19.470Z,7352
2017-07-30T12:16:18.833Z,7032
2017-07-30T12:17:18.619Z,6868
2017-07-30T12:18:18.548Z,6692
2017-07-30T12:19:18.581Z,6292
2017-07-30T12:20:19.186Z,5804
2017-07-30T12:21:18.577Z,5304
2017-07-30T12:22:18.318Z,4900
2017-07-30T12:23:18.583Z,4992
2017-07-30T12:24:17.998Z,5500
2017-07-30T12:25:20.999Z,6340
2017-07-30T12:26:18.902Z,6904
2017-07-30T12:27:18.930Z,7384
2017-07-30T12:28:18.635Z,7648
2017-07-30T12:29:18.336Z,7696
2017-07-30T12:30:19.892Z,7256
2017-07-30T12:31:18.952Z,6576
2017-07-30T12:32:18.672Z,6124
2017-07-30T12:33:18.973Z,6172
2017-07-30T12:34:18.368Z,6376
2017-07-30T12:35:20.225Z,6456
2017-07-30T12:36:18.741Z,6284
2017-07-30T12:37:19.022Z,5976
2017-07-30T12:38:19.008Z,5652
2017-07-30T12:39:19.017Z,5372
2017-07-30T12:40:20.837Z,5400
2017-07-30T12:41:18.731Z,5840
2017-07-30T12:42:18.733Z,6476
2017-07-30T12:43:19.041Z,7100
2017-07-30T12:44:19.045Z,7504
2017-07-30T12:45:19.847Z,7660
2017-07-30T12:46:18.773Z,7776
2017-07-30T12:47:18.780Z,7792
2017-07-30T12:48:18.785Z,7648
2017-07-30T12:49:18.787Z,7796
2017-07-30T12:50:19.429Z,8224
2017-07-30T12:51:18.499Z,8260
2017-07-30T12:52:18.813Z,8244
2017-07-30T12:53:19.123Z,8248
2017-07-30T12:54:18.823Z,8296
2017-07-30T12:55:19.815Z,8428
2017-07-30T12:56:18.837Z,8848
2017-07-30T12:57:18.546Z,9328
2017-07-30T12:58:18.852Z,8844
2017-07-30T12:59:19.159Z,7828
2017-07-30T13:00:19.566Z,8488
2017-07-30T13:01:18.871Z,8064
2017-07-30T13:02:18.881Z,7848
2017-07-30T13:03:18.883Z,8612
2017-07-30T13:04:18.897Z,7780
2017-07-30T13:05:20.154Z,7884
2017-07-30T13:06:18.621Z,8496
2017-07-30T13:07:19.220Z,9512
2017-07-30T13:08:18.936Z,9924
2017-07-30T13:09:18.332Z,9860
2017-07-30T13:10:19.931Z,10048
2017-07-30T13:11:19.002Z,10540
2017-07-30T13:12:19.259Z,9788
2017-07-30T13:13:18.662Z,9680
2017-07-30T13:14:18.976Z,9512
2017-07-30T13:15:20.034Z,9396
2017-07-30T13:16:18.986Z,9404
2017-07-30T13:17:18.991Z,9660
2017-07-30T13:18:19.014Z,10164
2017-07-30T13:19:19.007Z,10280
2017-07-30T13:20:19.880Z,10380
2017-07-30T13:21:18.745Z,10220
2017-07-30T13:22:19.332Z,10028
2017-07-30T13:23:18.730Z,8892
2017-07-30T13:24:18.750Z,8216
2017-07-30T13:25:19.643Z,7636
2017-07-30T13:26:21.912Z,7216
2017-07-30T13:27:19.079Z,7188
2017-07-30T13:28:19.089Z,6904
2017-07-30T13:29:19.384Z,6848
2017-07-30T13:30:20.250Z,6748
2017-07-30T13:31:19.095Z,6056
2017-07-30T13:32:19.106Z,5308
2017-07-30T13:33:19.127Z,4696
2017-07-30T13:34:19.113Z,4300
2017-07-30T13:35:20.135Z,4064
2017-07-30T13:36:19.161Z,3848